| Date | Time | Temp. (oF) | Dew Point (oF) | Rel. Hum. (%) | Press. (in.) | Wind Dir. | Wind Speed (mph) | Hourly Rainfall (in.) |
|
|---|---|---|---|---|---|---|---|---|---|
| 1 | 06/19 | 00:00 | 66 | 60 | 83 | 30.08 | E | 0 | 0.00 |
| 2 | 06/18 | 23:00 | 69 | 60 | 75 | 30.06 | SSW | 0 | 0.00 |
| 3 | 06/18 | 22:00 | 71 | 61 | 71 | 30.05 | SSW | 0 | 0.00 |
| 4 | 06/18 | 21:00 | 75 | 60 | 60 | 30.04 | S | 0 | 0.00 |
| 5 | 06/18 | 20:00 | 81 | 59 | 49 | 30.02 | SW | 2 | 0.00 |
| 6 | 06/18 | 19:00 | 84 | 60 | 45 | 30.01 | WSW | 2 | 0.00 |
| 7 | 06/18 | 18:00 | 83 | 60 | 47 | 30.03 | S | 3 | 0.00 |
| 8 | 06/18 | 17:00 | 83 | 58 | 44 | 30.04 | NNE | 0 | 0.00 |
| 9 | 06/18 | 16:00 | 83 | 60 | 47 | 30.06 | SW | 2 | 0.00 |
| 10 | 06/18 | 15:00 | 83 | 59 | 45 | 30.07 | SW | 4 | 0.00 |
| 11 | 06/18 | 14:00 | 83 | 60 | 47 | 30.08 | ENE | 4 | 0.00 |
| 12 | 06/18 | 13:00 | 81 | 60 | 50 | 30.11 | E | 3 | 0.00 |
| 13 | 06/18 | 12:00 | 79 | 58 | 50 | 30.11 | SSW | 1 | 0.00 |
| 14 | 06/18 | 11:00 | 76 | 60 | 58 | 30.11 | E | 2 | 0.00 |
| 15 | 06/18 | 10:00 | 74 | 62 | 67 | 30.11 | ENE | 4 | 0.00 |
| 16 | 06/18 | 09:00 | 70 | 60 | 71 | 30.13 | NNE | 8 | 0.00 |
| 17 | 06/18 | 08:00 | 65 | 59 | 83 | 30.14 | N | 2 | 0.00 |
| 18 | 06/18 | 07:00 | 58 | 56 | 96 | 30.12 | WNW | 0 | 0.00 |
| 19 | 06/18 | 06:00 | 57 | 55 | 94 | 30.10 | NW | 0 | 0.00 |
| 20 | 06/18 | 05:00 | 58 | 55 | 91 | 30.08 | NW | 0 | 0.00 |
| 21 | 06/18 | 04:00 | 58 | 55 | 90 | 30.07 | WNW | 0 | 0.00 |
| 22 | 06/18 | 03:00 | 59 | 54 | 85 | 30.06 | WSW | 0 | 0.00 |
| 23 | 06/18 | 02:00 | 60 | 54 | 81 | 30.06 | NW | 0 | 0.00 |
| 24 | 06/18 | 01:00 | 63 | 54 | 73 | 30.06 | NW | 0 | 0.00 |